Motte Rimrock Reserve, California Weather observations

Data are for 10 minute period ending at time listed.
 Day   Time   Solar   Ave.   Ave.  Ave.  Vector  Max.   Baro.   Total    
  of    of     Rad.   Air    Rel.  Wind   Wind   Wind  Press.  Precip.   
Year   Day            Temp.  Hum.  Speed  Dir.   Gust                    
2014   (PST)  Kw/m2    F      %     mph   deg.    mph    mb.     in.     
-------------------------------------------------------------------------
 243   20:10   0.00   74.7    50    6.1   122     8.0   943.6    0.00 
 243   20:20   0.00   74.2    51    4.7   124     6.4   943.7    0.00 
 243   20:30   0.00   73.8    51    3.0   132     4.2   943.7    0.00 
 243   20:40   0.00   73.7    52    2.8   140     3.9   943.7    0.00 
 243   20:50   0.00   73.6    52    0.6   166     2.0   943.8    0.00 
 243   21:00   0.00   73.3    53    0.0     0     0.0   943.8    0.00 
 243   21:10   0.00   72.9    52    3.4   138     5.8   943.9    0.00 
 243   21:20   0.00   71.4    54    5.1   136     5.9   943.9    0.00 
 243   21:30   0.00   70.7    55    4.1   139     5.3   944.0    0.00 
 243   21:40   0.00   71.0    54    2.8   135     4.2   944.0    0.00 
 243   21:50   0.00   71.0    54    2.2   152     3.0   943.9    0.00 
 243   22:00   0.00   70.8    55    1.2   151     2.2   943.9    0.00 
 243   22:10   0.00   70.7    55    1.1   159     1.9   943.9    0.00 
 243   22:20   0.00   70.5    56    1.7   154     2.0   943.9    0.00 
 243   22:30   0.00   70.3    56    2.6   222     3.8   943.9    0.00 
 243   22:40   0.00   70.5    55    2.6   211     3.5   944.0    0.00 
 243   22:50   0.00   70.5    55    2.2   206     2.7   944.0    0.00 
 243   23:00   0.00   71.0    54    2.7   237     3.2   944.0    0.00 
 243   23:10   0.00   71.0    52    3.1   213     3.9   944.1    0.00 
 243   23:20   0.00   71.2    51    2.6   205     3.7   944.1    0.00 
 243   23:30   0.00   70.9    52    1.7   238     2.2   944.1    0.00 
 243   23:40   0.00   70.7    53    1.6   252     2.1   944.0    0.00 
 243   23:50   0.00   70.5    54    1.9   280     2.6   943.9    0.00 
 244    0:00   0.00   70.5    63    1.6   300     2.6   943.9    0.00 
 244    0:10   0.00   70.4    62    1.9    22     3.8   943.9    0.00 
 244    0:20   0.00   69.3    63    1.7    91     3.9   943.8    0.00 
 244    0:30   0.00   70.1    60    1.9   117     3.1   943.7    0.00 
 244    0:40   0.00   69.2    63    3.9   105     5.3   943.7    0.00 
 244    0:50   0.00   67.6    68    4.8   119     5.6   943.7    0.00 
 244    1:00   0.00   66.9    71    4.0   129     5.6   943.7    0.00 
 244    1:10   0.00   66.9    71    3.3   136     5.3   943.7    0.00 
 244    1:20   0.00   66.8    71    3.9   127     5.6   943.7    0.00 
 244    1:30   0.00   66.6    71    3.4   131     4.8   943.7    0.00 
 244    1:40   0.00   66.7    71    4.8   127     5.8   943.6    0.00 
 244    1:50   0.00   66.7    72    6.3   123     7.0   943.5    0.00 
 244    2:00   0.00   66.7    74    5.6   110     6.6   943.5    0.00 
 244    2:10   0.00   66.0    76    4.8   114     7.2   943.4    0.00 
 244    2:20   0.00   66.4    77    6.7   113     8.3   943.4    0.00 
 244    2:30   0.00   66.5    76    4.4   116     6.7   943.3    0.00 
 244    2:40   0.00   66.6    74    3.7   131     4.9   943.2    0.00 
 244    2:50   0.00   66.4    74    3.8   135     4.8   943.2    0.00 
 244    3:00   0.00   66.1    75    4.5   134     6.4   943.2    0.00 
 244    3:10   0.00   66.1    74    5.4   126     6.1   943.2    0.00 
 244    3:20   0.00   65.9    77    4.9   115     5.6   943.2    0.00 
 244    3:30   0.00   66.0    77    5.3   115     5.8   943.1    0.00 
 244    3:40   0.00   66.3    76    5.8   109     6.3   943.1    0.00 
 244    3:50   0.00   66.1    76    6.1   116     6.9   943.2    0.00 
 244    4:00   0.00   65.8    76    6.7   121     7.4   943.2    0.00 
 244    4:10   0.00   65.2    76    7.2   122     8.0   943.1    0.00 
 244    4:20   0.00   64.9    72    7.3   122     8.1   943.2    0.00 
 244    4:30   0.00   65.1    70    6.0   112     7.2   943.4    0.00 
 244    4:40   0.00   65.4    69    5.7   108     6.7   943.4    0.00 
 244    4:50   0.00   65.6    70    5.6    97     6.5   943.5    0.00 
 244    5:00   0.00   65.5    71    5.6    93     6.3   943.5    0.00 
 244    5:10   0.00   66.2    68    4.6   106     5.5   943.5    0.00 
 244    5:20   0.00   66.5    67    5.0   121     5.7   943.5    0.00 
 244    5:30   0.00   66.2    68    4.9   127     5.3   943.6    0.00 
 244    5:40   0.01   65.5    70    3.5   141     5.6   943.7    0.00 
 244    5:50   0.03   65.1    76    3.6   131     4.2   943.7    0.00 
 244    6:00   0.06   65.9    72    3.9   124     4.5   943.8    0.00 
 244    6:10   0.09   67.1    68    3.9   125     4.7   943.9    0.00 
 244    6:20   0.12   68.0    67    3.8   122     4.7   944.0    0.00 
 244    6:30   0.16   68.8    65    3.5   126     4.7   944.0    0.00 
 244    6:40   0.19   68.6    65    2.7   147     3.6   944.0    0.00 
 244    6:50   0.23   69.7    62    2.7   135     3.9   944.1    0.00 
 244    7:00   0.27   70.5    59    3.0   136     3.9   944.1    0.00 
 244    7:10   0.30   71.3    57    2.6   124     4.2   944.1    0.00 
 244    7:20   0.34   72.0    55    2.2   117     3.7   944.3    0.00 
 244    7:30   0.38   72.9    54    2.1   126     3.9   944.3    0.00 
 244    7:40   0.41   73.9    52    2.4   115     4.5   944.3    0.00 
 244    7:50   0.45   74.8    50    3.1   106     4.8   944.4    0.00 
 244    8:00   0.49   74.4    50    3.1    88     4.8   944.5    0.00 
 244    8:10   0.52   75.3    49    2.5    70     4.7   944.5    0.00 
 244    8:20   0.56   76.2    46    2.4    86     4.4   944.5    0.00 
 244    8:30   0.59   77.8    42    2.0    93     3.7   944.5    0.00 
 244    8:40   0.62   78.7    37    1.8   156     4.0   944.5    0.00 
 244    8:50   0.65   79.5    33    3.3   187     7.1   944.5    0.00 
 244    9:00   0.68   80.2    30    4.5   159     7.0   944.5    0.00 
 244    9:10   0.71   80.7    30    4.8   174    10.9   944.4    0.00 
 244    9:20   0.74   81.0    29    5.9   145     9.9   944.4    0.00 
 244    9:30   0.76   81.4    28    6.3   183    11.4   944.3    0.00 
 244    9:40   0.79   81.6    28    7.3   192    11.8   944.3    0.00 
 244    9:50   0.81   82.3    27    7.8   175    13.2   944.3    0.00 
 244   10:00   0.83   83.3    25    7.6   175    13.0   944.2    0.00 
 244   10:10   0.85   84.8    23    8.9   177    13.9   944.2    0.00 
 244   10:20   0.87   85.4    20    8.5   186    13.2   944.1    0.00 
 244   10:30   0.89   85.9    19    7.1   188    11.0   944.0    0.00 
 244   10:40   0.90   86.8    18    7.9   191    12.4   943.9    0.00 
 244   10:50   0.92   87.4    16    8.6   197    15.3   943.8    0.00 
 244   11:00   0.93   87.7    14    9.9   198    15.9   943.7    0.00 
 244   11:10   0.94   88.5    14    9.9   178    15.1   943.6    0.00 
 244   11:20   0.95   88.1    14   10.2   183    15.2   943.5    0.00 
 244   11:30   0.95   88.6    13    9.1   204    14.8   943.5    0.00 
 244   11:40   0.96   89.3    12   10.3   175    16.5   943.3    0.00 
 244   11:50   0.96   89.3    12   10.0   172    15.9   943.2    0.00 
 244   12:00   0.96   90.9    11    9.3   166    15.1   943.1    0.00 
 244   12:10   0.96   90.7    11   10.0   176    14.6   943.0    0.00 
 244   12:20   0.96   90.8    10    8.2   188    14.0   943.0    0.00 
 244   12:30   0.95   91.5    10    9.8   182    23.2   942.9    0.00 
 244   12:40   0.95   91.9     9   10.8   179    17.1   942.9    0.00 
 244   12:50   0.94   92.5     8    9.5   197    14.0   942.8    0.00 
 244   13:00   0.93   92.4     7   11.3   172    17.3   942.8    0.00 
 244   13:10   0.92   93.1     6   12.2   184    18.1   942.8    0.00 
 244   13:20   0.90   93.4     6   10.3   205    15.7   942.7    0.00 
 244   13:30   0.85   93.7     6   10.0   199    16.1   942.6    0.00 
 244   13:40   0.87   93.8     5   10.7   207    17.7   942.4    0.00 
 244   13:50   0.85   94.5     7   11.4   185    19.4   942.3    0.00 
 244   14:00   0.82   93.8     6   10.8   190    17.2   942.3    0.00 
 244   14:10   0.81   93.8     5   11.7   201    18.2   942.3    0.00 
 244   14:20   0.78   94.1     5   12.0   194    17.3   942.2    0.00 
 244   14:30   0.76   93.2     6   11.6   186    17.6   942.2    0.00 
 244   14:40   0.73   93.4     6    9.6   184    15.1   942.1    0.00 
 244   14:50   0.70   93.7     6   10.8   185    17.7   942.1    0.00 
 244   15:00   0.67   93.3     7   12.8   163    18.2   942.1    0.00 
 244   15:10   0.64   93.2     7   12.6   167    16.9   942.0    0.00 
 244   15:20   0.61   93.0     7   11.3   175    17.8   942.0    0.00 
 244   15:30   0.57   92.7     7   12.4   171    18.2   942.0    0.00 
 244   15:40   0.54   92.6     8   12.2   174    16.3   942.0    0.00 
 244   15:50   0.50   92.1     8   12.2   177    16.6   942.0    0.00 
 244   16:00   0.47   91.7     8   12.6   176    15.9   942.0    0.00 
 244   16:10   0.43   91.0     7   13.0   172    19.1   942.0    0.00 
 244   16:20   0.40   90.9     7   12.5   184    17.2   942.0    0.00 
 244   16:30   0.36   90.7     7   11.6   178    17.2   942.0    0.00 
 244   16:40   0.32   90.3     7   13.4   172    18.2   941.9    0.00 
 244   16:50   0.28   89.9     7   11.7   174    15.1   941.9    0.00 
 244   17:00   0.24   89.2     7   12.1   182    17.3   941.9    0.00 
 244   17:10   0.21   88.6     7   11.2   186    15.6   941.9    0.00 
 244   17:20   0.17   87.8     7   12.1   178    15.6   941.9    0.00 
 244   17:30   0.13   87.0     8    9.9   183    13.4   941.9    0.00 
 244   17:40   0.09   86.4     8   10.8   180    14.5   942.0    0.00 
 244   17:50   0.07   85.4     8    9.8   184    13.2   942.2    0.00 
 244   18:00   0.03   84.9     8    6.3   197    10.3   942.3    0.00 
 244   18:10   0.01   84.4     8    5.0   204     8.6   942.4    0.00 
 244   18:20   0.01   83.9     8    2.9   204     5.0   942.5    0.00 
 244   18:30   0.01   83.2     8    2.2   155     4.2   942.7    0.00 
 244   18:40   0.00   81.8     8    4.5   135     5.8   942.8    0.00 
 244   18:50   0.00   80.3     9    2.1   118     5.3   943.0    0.00 
 244   19:00   0.00   79.7     9    3.1   131     5.2   943.2    0.00 
 244   19:10   0.00   78.8     9    4.5   146     6.5   943.3    0.00 
 244   19:20   0.00   78.3     9    4.1   160     6.4   943.4    0.00 
 244   19:30   0.00   77.7    10    3.7   161     6.1   943.5    0.00 
 244   19:40   0.00   77.4    10    4.1   162     5.6   943.7    0.00 
 244   19:50   0.00   77.3     9    3.7   172     6.1   943.8    0.00 
 244   20:00   0.00   77.4     9    3.0   216     4.5   943.9    0.00 

Return to Motte Rimrock Reserve graphs page.


Western Regional Climate Center,wrcc@dri.edu